Time;durP1;ratioP1;P1;durP2;ratioP2;P2;SDS_P1;SDS_P2;PMS_P1;PMS_P2;Temp;Humidity;BMP_temperature;BMP_pressure;BME280_temperature;BME280_humidity;BME280_pressure;Samples;Min_cycle;Max_cycle;Signal;HPM_P1;HPM_P2
2022/02/20 00:00:36;;;;;;;3.05;1.02;;;16.00;45.90;;;;;;5056840;28;20388;-43
2022/02/20 00:03:02;;;;;;;3.88;1.30;;;16.10;46.00;;;;;;5059216;28;20020;-45
2022/02/20 00:05:28;;;;;;;4.32;1.30;;;16.00;45.90;;;;;;5058990;28;20013;-44
2022/02/20 00:07:55;;;;;;;3.47;1.30;;;16.00;45.90;;;;;;5061090;28;20468;-45
2022/02/20 00:10:22;;;;;;;3.03;1.15;;;16.00;45.90;;;;;;5060215;28;20090;-43
2022/02/20 00:12:48;;;;;;;2.08;0.93;;;16.00;45.90;;;;;;5058171;28;20059;-48
2022/02/20 00:15:14;;;;;;;2.08;0.90;;;16.00;45.90;;;;;;5057019;28;20024;-46
2022/02/20 00:17:41;;;;;;;3.38;1.30;;;16.00;45.90;;;;;;5058947;28;20021;-43
2022/02/20 00:20:10;;;;;;;2.45;0.95;;;16.00;45.90;;;;;;5060338;28;20321;-45
2022/02/20 00:22:36;;;;;;;1.65;0.88;;;16.00;45.90;;;;;;5059130;28;20009;-44
2022/02/20 00:25:06;;;;;;;4.82;1.15;;;16.00;45.90;;;;;;5058007;28;20487;-44
2022/02/20 00:27:33;;;;;;;1.90;0.90;;;16.00;45.90;;;;;;5056469;28;20032;-43
2022/02/20 00:30:00;;;;;;;1.88;0.80;;;16.00;45.90;;;;;;5055645;28;20025;-44
2022/02/20 00:32:28;;;;;;;1.63;0.82;;;16.00;45.90;;;;;;5056206;28;20025;-45
2022/02/20 00:34:54;;;;;;;3.42;1.08;;;16.00;45.90;;;;;;5056056;28;20391;-43
2022/02/20 00:37:22;;;;;;;3.25;0.82;;;16.00;45.90;;;;;;5055330;28;20029;-44
2022/02/20 00:39:48;;;;;;;5.88;1.10;;;16.00;45.90;;;;;;5055025;28;20037;-45
2022/02/20 00:42:15;;;;;;;1.80;0.95;;;16.00;45.90;;;;;;5054165;28;20092;-44
2022/02/20 00:44:41;;;;;;;1.63;0.77;;;16.00;45.90;;;;;;5054780;28;20029;-44
2022/02/20 00:47:08;;;;;;;2.42;0.93;;;16.00;45.90;;;;;;5054483;28;20017;-43
2022/02/20 00:49:35;;;;;;;3.40;1.05;;;16.00;45.90;;;;;;5054480;28;20051;-43
2022/02/20 00:52:01;;;;;;;2.92;1.30;;;16.00;45.90;;;;;;5054560;28;20037;-44
2022/02/20 00:54:28;;;;;;;2.25;0.95;;;16.00;45.90;;;;;;5055687;28;20048;-43
2022/02/20 00:56:54;;;;;;;3.30;1.00;;;16.00;45.90;;;;;;5055683;28;20036;-44
2022/02/20 00:59:20;;;;;;;2.95;1.30;;;16.00;45.90;;;;;;5054360;28;20025;-44
2022/02/20 01:01:48;;;;;;;2.47;1.08;;;16.00;45.90;;;;;;5054562;28;20088;-45
2022/02/20 01:04:14;;;;;;;1.58;0.80;;;16.00;45.90;;;;;;5054210;28;20062;-45
2022/02/20 01:06:39;;;;;;;2.15;0.70;;;16.00;45.90;;;;;;5054113;28;20475;-48
2022/02/20 01:09:05;;;;;;;2.35;0.88;;;15.90;45.90;;;;;;5053908;28;20431;-44
2022/02/20 01:11:32;;;;;;;1.63;0.70;;;16.00;45.90;;;;;;5053589;28;20025;-44
2022/02/20 01:13:59;;;;;;;2.03;0.77;;;16.00;45.90;;;;;;5053196;28;20091;-44
2022/02/20 01:16:25;;;;;;;2.15;0.90;;;15.90;45.90;;;;;;5053187;28;20025;-45
2022/02/20 01:18:52;;;;;;;1.30;0.73;;;15.90;45.90;;;;;;5035251;28;20020;-44
2022/02/20 01:21:19;;;;;;;2.78;0.95;;;16.00;45.90;;;;;;5052872;28;20471;-44
2022/02/20 01:23:45;;;;;;;1.50;0.60;;;15.90;45.90;;;;;;5052950;28;20096;-45
2022/02/20 01:26:11;;;;;;;3.35;1.15;;;15.90;45.90;;;;;;5053553;28;20024;-47
2022/02/20 01:28:38;;;;;;;2.03;0.85;;;15.90;45.90;;;;;;5052988;28;20028;-46
2022/02/20 01:31:04;;;;;;;2.92;1.02;;;15.90;45.90;;;;;;5053101;28;20045;-48
2022/02/20 01:33:30;;;;;;;2.83;1.00;;;15.90;45.90;;;;;;5053423;28;20048;-48
2022/02/20 01:35:57;;;;;;;2.03;0.70;;;15.90;45.90;;;;;;5053148;28;20082;-46
2022/02/20 01:38:22;;;;;;;2.15;0.90;;;15.90;45.90;;;;;;5052925;28;20418;-50
2022/02/20 01:40:51;;;;;;;1.63;0.75;;;15.90;46.00;;;;;;5057584;28;20028;-50
2022/02/20 01:43:18;;;;;;;2.53;0.90;;;15.90;46.10;;;;;;5064645;28;20119;-47
2022/02/20 01:45:46;;;;;;;1.63;0.80;;;15.90;46.00;;;;;;5065620;28;20017;-46
2022/02/20 01:48:12;;;;;;;3.13;1.08;;;15.90;46.00;;;;;;5063081;28;20024;-50
2022/02/20 01:50:38;;;;;;;2.30;0.80;;;15.90;46.00;;;;;;5064167;28;20033;-46
2022/02/20 01:53:04;;;;;;;2.22;0.82;;;15.90;46.00;;;;;;5066633;28;20029;-52
2022/02/20 01:55:31;;;;;;;1.55;0.70;;;15.90;46.00;;;;;;5067385;28;20084;-50
2022/02/20 01:57:58;;;;;;;5.05;0.93;;;15.90;46.00;;;;;;5068376;28;20021;-50
2022/02/20 02:00:25;;;;;;;2.53;1.00;;;15.90;46.00;;;;;;5067049;28;20094;-48
2022/02/20 02:02:51;;;;;;;2.67;0.90;;;15.90;46.00;;;;;;5065576;28;20058;-46
2022/02/20 02:05:17;;;;;;;2.40;0.93;;;15.90;46.00;;;;;;5066102;28;20013;-47
2022/02/20 02:07:43;;;;;;;2.08;0.90;;;15.90;46.00;;;;;;5069194;28;20009;-50
2022/02/20 02:10:10;;;;;;;3.40;0.85;;;15.80;46.00;;;;;;5069781;28;20724;-50
2022/02/20 02:12:36;;;;;;;1.55;0.80;;;15.90;46.00;;;;;;5067924;28;20443;-50
2022/02/20 02:15:07;;;;;;;2.08;1.02;;;15.90;46.60;;;;;;5066740;28;20409;-48
2022/02/20 02:17:34;;;;;;;2.60;0.90;;;15.80;46.00;;;;;;5063582;28;20029;-45
2022/02/20 02:20:01;;;;;;;1.55;0.77;;;15.90;46.00;;;;;;5064489;28;20104;-43
2022/02/20 02:22:28;;;;;;;2.08;1.02;;;15.80;46.00;;;;;;5064042;28;20013;-45
2022/02/20 02:24:55;;;;;;;2.60;0.90;;;15.90;46.00;;;;;;5064107;28;20068;-43
2022/02/20 02:27:21;;;;;;;1.45;0.70;;;15.90;46.00;;;;;;5064069;28;20055;-43
2022/02/20 02:29:49;;;;;;;2.70;0.77;;;15.80;46.00;;;;;;5064126;28;20053;-44
2022/02/20 02:32:15;;;;;;;5.13;1.00;;;15.80;46.00;;;;;;5064097;28;20028;-46
2022/02/20 02:34:42;;;;;;;1.70;0.70;;;15.80;46.00;;;;;;5066838;28;20044;-46
2022/02/20 02:37:09;;;;;;;1.98;0.93;;;15.80;46.00;;;;;;5065310;28;20104;-44
2022/02/20 02:39:36;;;;;;;2.17;1.10;;;15.80;46.00;;;;;;5063002;28;20017;-44
2022/02/20 02:42:02;;;;;;;2.72;0.88;;;15.80;46.00;;;;;;5064218;28;20052;-44
2022/02/20 02:44:28;;;;;;;2.45;1.00;;;15.80;46.00;;;;;;5064823;28;20023;-44
2022/02/20 02:46:54;;;;;;;1.85;0.93;;;15.80;46.00;;;;;;5064075;28;20100;-44
2022/02/20 02:49:19;;;;;;;2.10;0.90;;;15.80;46.00;;;;;;5064586;28;20456;-45
2022/02/20 02:51:46;;;;;;;2.53;1.05;;;15.80;46.00;;;;;;5063439;28;20013;-43
2022/02/20 02:54:12;;;;;;;2.20;0.80;;;15.80;46.10;;;;;;5060038;28;20021;-44
2022/02/20 02:56:39;;;;;;;2.60;0.98;;;15.80;46.10;;;;;;5059594;28;20049;-48
2022/02/20 02:59:05;;;;;;;5.10;1.00;;;15.80;46.10;;;;;;5059738;28;20009;-46
2022/02/20 03:01:31;;;;;;;1.65;0.80;;;15.80;46.00;;;;;;5059416;28;20013;-46
2022/02/20 03:03:56;;;;;;;1.45;0.63;;;15.80;46.10;;;;;;5058031;28;20421;-45
2022/02/20 03:06:23;;;;;;;1.85;0.80;;;15.80;46.10;;;;;;5058362;28;20021;-47
2022/02/20 03:08:50;;;;;;;1.75;0.63;;;15.80;46.10;;;;;;5058066;28;20021;-46
2022/02/20 03:11:15;;;;;;;2.78;0.80;;;15.80;46.00;;;;;;5057146;28;20025;-45
2022/02/20 03:13:41;;;;;;;1.33;0.82;;;15.80;46.10;;;;;;5056736;28;20028;-49
2022/02/20 03:16:07;;;;;;;2.38;0.93;;;15.80;46.10;;;;;;5056786;28;20025;-47
2022/02/20 03:18:33;;;;;;;1.65;0.90;;;15.80;46.10;;;;;;5057519;28;20097;-49
2022/02/20 03:21:00;;;;;;;1.70;0.95;;;15.80;46.10;;;;;;5057187;28;20443;-47
2022/02/20 03:23:26;;;;;;;1.23;0.70;;;15.80;46.10;;;;;;5057128;28;20024;-47
2022/02/20 03:25:51;;;;;;;2.30;0.95;;;15.80;46.60;;;;;;5056310;28;20020;-45
2022/02/20 03:28:18;;;;;;;1.65;0.90;;;15.70;46.00;;;;;;5056631;28;20044;-47
2022/02/20 03:30:43;;;;;;;2.78;0.80;;;15.70;46.00;;;;;;5055401;28;20475;-49
2022/02/20 03:33:09;;;;;;;1.23;0.65;;;15.70;46.00;;;;;;5055561;28;20041;-47
2022/02/20 03:35:36;;;;;;;1.83;0.80;;;15.70;46.00;;;;;;5055816;28;20120;-48
2022/02/20 03:38:02;;;;;;;2.13;0.88;;;15.70;46.10;;;;;;5056868;28;20155;-49
2022/02/20 03:40:28;;;;;;;2.10;0.70;;;15.70;46.10;;;;;;5057299;28;20013;-47
2022/02/20 03:42:54;;;;;;;3.33;0.90;;;15.70;46.00;;;;;;5056446;28;20048;-49
2022/02/20 03:45:20;;;;;;;1.90;0.65;;;15.70;46.10;;;;;;5057020;28;20017;-49
2022/02/20 03:47:47;;;;;;;2.45;0.80;;;15.70;46.10;;;;;;5057353;28;20067;-50
2022/02/20 03:50:13;;;;;;;2.10;0.82;;;15.70;46.00;;;;;;5057058;28;20013;-47
2022/02/20 03:52:39;;;;;;;2.30;1.05;;;15.80;46.10;;;;;;5054814;28;20013;-48
2022/02/20 03:55:07;;;;;;;2.20;0.98;;;15.70;46.00;;;;;;5054672;28;20059;-49
2022/02/20 03:57:33;;;;;;;1.00;0.57;;;15.70;46.00;;;;;;5054764;28;20024;-47
2022/02/20 03:59:59;;;;;;;1.25;0.80;;;15.70;46.00;;;;;;5054840;28;20033;-47
2022/02/20 04:02:30;;;;;;;2.15;0.93;;;15.70;46.00;;;;;;5055078;28;20013;-47
2022/02/20 04:04:59;;;;;;;2.95;1.00;;;15.70;46.10;;;;;;5054717;28;20051;-50
2022/02/20 04:07:25;;;;;;;2.05;0.70;;;15.70;46.00;;;;;;5057716;28;20032;-48
2022/02/20 04:09:51;;;;;;;1.75;0.77;;;15.70;46.00;;;;;;5055434;28;20487;-45
2022/02/20 04:12:18;;;;;;;2.40;0.98;;;15.70;46.10;;;;;;5054003;28;20021;-46
2022/02/20 04:14:44;;;;;;;2.25;0.90;;;15.70;46.10;;;;;;5053770;28;20094;-45
2022/02/20 04:17:09;;;;;;;2.67;1.17;;;15.70;46.10;;;;;;5055885;28;20029;-44
2022/02/20 04:19:35;;;;;;;3.22;0.80;;;15.70;46.10;;;;;;5055874;28;20021;-47
2022/02/20 04:22:02;;;;;;;1.60;0.88;;;15.70;46.10;;;;;;5056439;28;20022;-46
2022/02/20 04:24:28;;;;;;;1.73;0.70;;;15.70;46.10;;;;;;5038286;28;20017;-45
2022/02/20 04:26:55;;;;;;;2.83;0.88;;;15.70;46.00;;;;;;5057012;28;20029;-49
2022/02/20 04:29:21;;;;;;;3.65;0.85;;;15.70;46.10;;;;;;5057443;28;20090;-48
2022/02/20 04:31:47;;;;;;;1.42;0.73;;;15.70;46.10;;;;;;5058540;28;20013;-46
2022/02/20 04:34:13;;;;;;;2.47;1.02;;;15.70;46.10;;;;;;5058221;28;20372;-47
2022/02/20 04:36:40;;;;;;;1.95;0.85;;;15.70;46.10;;;;;;5057752;28;20025;-47
2022/02/20 04:39:09;;;;;;;1.35;0.75;;;15.70;46.10;;;;;;5057617;28;20035;-45
2022/02/20 04:41:36;;;;;;;2.30;0.93;;;15.70;46.10;;;;;;5056185;28;20108;-47
2022/02/20 04:44:02;;;;;;;2.90;1.10;;;15.70;46.10;;;;;;5059109;28;20021;-45
2022/02/20 04:46:33;;;;;;;2.72;1.00;;;15.70;46.10;;;;;;5057471;28;20541;-45
2022/02/20 04:48:59;;;;;;;2.05;0.88;;;15.70;46.10;;;;;;5058927;28;20017;-48
2022/02/20 04:51:25;;;;;;;3.03;1.13;;;15.70;46.10;;;;;;5058064;28;20009;-47
2022/02/20 04:53:52;;;;;;;2.97;1.00;;;15.70;46.10;;;;;;5058362;28;20069;-46
2022/02/20 04:56:19;;;;;;;2.28;0.90;;;15.70;46.10;;;;;;5057995;28;20025;-50
2022/02/20 04:58:46;;;;;;;2.25;0.90;;;15.70;46.10;;;;;;5056190;28;20032;-49
2022/02/20 05:01:13;;;;;;;1.00;0.63;;;15.70;46.70;;;;;;5055218;28;20468;-48
2022/02/20 05:03:40;;;;;;;1.75;0.85;;;15.70;46.10;;;;;;5055741;28;20505;-50
2022/02/20 05:06:05;;;;;;;2.28;0.80;;;15.70;46.20;;;;;;5055041;28;20463;-51
2022/02/20 05:08:31;;;;;;;2.55;1.00;;;15.70;46.20;;;;;;5055957;28;20043;-50
2022/02/20 05:10:57;;;;;;;3.20;1.05;;;15.70;46.20;;;;;;5055510;28;20025;-48
2022/02/20 05:13:24;;;;;;;1.80;0.93;;;15.70;46.20;;;;;;5057590;28;20056;-49
2022/02/20 05:15:51;;;;;;;2.42;0.90;;;15.70;46.20;;;;;;5056465;28;20033;-49
2022/02/20 05:18:18;;;;;;;2.40;1.10;;;15.70;46.20;;;;;;5056099;28;20020;-51
2022/02/20 05:20:46;;;;;;;2.65;0.90;;;15.70;46.20;;;;;;5057174;28;20464;-53
2022/02/20 05:23:11;;;;;;;1.30;0.80;;;15.70;46.20;;;;;;5056899;28;20013;-49
2022/02/20 05:25:37;;;;;;;1.88;0.82;;;15.70;46.30;;;;;;5055172;28;20521;-48
2022/02/20 05:28:04;;;;;;;1.88;0.85;;;15.70;46.30;;;;;;5053476;28;20025;-48
2022/02/20 05:30:30;;;;;;;2.42;0.90;;;15.70;46.40;;;;;;5053416;28;20021;-48
2022/02/20 05:32:56;;;;;;;2.97;1.08;;;15.70;46.40;;;;;;5053653;28;20472;-48
2022/02/20 05:35:23;;;;;;;1.50;0.70;;;15.70;46.40;;;;;;5054561;28;20017;-46
2022/02/20 05:37:50;;;;;;;2.35;0.80;;;15.70;46.40;;;;;;5056584;28;20088;-49
2022/02/20 05:40:18;;;;;;;2.85;0.88;;;15.70;46.50;;;;;;5054185;28;20021;-48
2022/02/20 05:42:44;;;;;;;4.43;1.10;;;15.70;46.60;;;;;;5054319;28;20037;-46
2022/02/20 05:45:10;;;;;;;2.55;0.90;;;15.70;46.60;;;;;;5053026;28;20530;-48
2022/02/20 05:47:36;;;;;;;2.63;0.75;;;15.70;46.60;;;;;;5053430;28;20017;-46
2022/02/20 05:50:04;;;;;;;2.30;0.80;;;15.70;46.60;;;;;;5054463;28;20539;-46
2022/02/20 05:52:30;;;;;;;2.50;0.82;;;15.70;46.60;;;;;;5057601;28;20036;-46
2022/02/20 05:54:57;;;;;;;2.53;0.82;;;15.70;46.60;;;;;;5058281;28;20016;-47
2022/02/20 05:57:23;;;;;;;3.20;1.00;;;15.70;46.60;;;;;;5059122;28;20084;-48
2022/02/20 05:59:50;;;;;;;3.65;0.85;;;15.70;46.80;;;;;;5061129;28;20044;-46
2022/02/20 06:02:16;;;;;;;2.15;1.10;;;15.70;46.90;;;;;;5058202;28;20014;-52
2022/02/20 06:04:43;;;;;;;3.42;1.25;;;15.70;46.90;;;;;;5055388;28;20077;-47
2022/02/20 06:07:10;;;;;;;3.20;0.98;;;15.70;47.00;;;;;;5054477;28;20041;-48
2022/02/20 06:09:36;;;;;;;3.22;1.02;;;15.70;46.90;;;;;;5055507;28;20017;-50
2022/02/20 06:12:05;;;;;;;1.55;0.85;;;15.70;47.10;;;;;;5055658;28;20032;-47
2022/02/20 06:14:31;;;;;;;2.55;1.00;;;15.70;47.10;;;;;;5056837;28;20055;-46
2022/02/20 06:16:57;;;;;;;3.78;1.40;;;15.70;47.30;;;;;;5057876;28;20476;-46
2022/02/20 06:19:23;;;;;;;4.20;1.27;;;15.70;47.30;;;;;;5056896;28;20021;-49
2022/02/20 06:21:49;;;;;;;1.88;0.82;;;15.70;47.40;;;;;;5052739;28;20493;-50
2022/02/20 06:24:15;;;;;;;2.28;1.00;;;15.70;47.40;;;;;;5053680;28;20021;-46
2022/02/20 06:26:41;;;;;;;3.33;1.05;;;15.70;47.60;;;;;;5052954;28;20033;-47
2022/02/20 06:29:07;;;;;;;3.95;1.38;;;15.70;48.10;;;;;;5055375;28;20518;-49
2022/02/20 06:31:34;;;;;;;2.13;0.80;;;15.70;48.00;;;;;;5056881;28;20090;-46
2022/02/20 06:34:01;;;;;;;1.80;0.70;;;15.70;47.70;;;;;;5057306;28;20060;-46
2022/02/20 06:36:27;;;;;;;4.22;1.48;;;15.70;47.60;;;;;;5056749;28;20032;-48
2022/02/20 06:38:53;;;;;;;2.13;0.85;;;15.70;47.80;;;;;;5056524;28;20071;-48
2022/02/20 06:41:20;;;;;;;2.38;0.98;;;15.70;47.80;;;;;;5057390;28;20060;-46
2022/02/20 06:43:46;;;;;;;2.67;1.10;;;15.70;47.80;;;;;;5057958;28;20761;-46
2022/02/20 06:46:12;;;;;;;2.05;0.90;;;15.70;47.80;;;;;;5057192;28;20018;-46
2022/02/20 06:48:39;;;;;;;4.90;1.08;;;15.70;48.00;;;;;;5057994;28;20021;-48
2022/02/20 06:51:06;;;;;;;2.13;0.90;;;15.70;47.90;;;;;;5056965;28;20012;-52
2022/02/20 06:53:32;;;;;;;1.83;0.73;;;15.70;48.00;;;;;;5055856;28;20110;-51
2022/02/20 06:55:57;;;;;;;1.98;0.82;;;15.70;48.20;;;;;;5054502;28;20060;-49
2022/02/20 06:58:23;;;;;;;2.83;1.00;;;15.70;48.20;;;;;;5056064;28;20017;-50
2022/02/20 07:00:49;;;;;;;3.33;1.00;;;15.70;48.50;;;;;;5055047;28;20017;-52
2022/02/20 07:03:16;;;;;;;2.05;0.90;;;15.70;48.30;;;;;;5055996;28;20013;-52
2022/02/20 07:05:42;;;;;;;2.65;1.42;;;15.70;48.60;;;;;;5055698;28;20009;-52
2022/02/20 07:08:09;;;;;;;3.65;0.90;;;15.60;48.20;;;;;;5054756;28;20013;-58
2022/02/20 07:10:35;;;;;;;2.80;0.98;;;15.60;49.20;;;;;;5054632;28;20553;-59
2022/02/20 07:13:02;;;;;;;2.15;0.80;;;15.70;48.60;;;;;;5055654;28;20063;-54
2022/02/20 07:15:28;;;;;;;2.60;1.00;;;15.70;48.60;;;;;;5055560;28;20013;-51
2022/02/20 07:17:54;;;;;;;3.65;1.20;;;15.70;48.70;;;;;;5055768;28;20561;-52
2022/02/20 07:20:20;;;;;;;4.13;1.00;;;15.60;48.70;;;;;;5060408;28;20472;-48
2022/02/20 07:22:47;;;;;;;2.38;0.90;;;15.70;49.00;;;;;;5062246;28;20009;-53
2022/02/20 07:25:13;;;;;;;2.70;1.00;;;15.70;49.00;;;;;;5062746;28;20033;-52
2022/02/20 07:27:41;;;;;;;2.42;1.02;;;15.60;48.90;;;;;;5062250;28;20025;-51
2022/02/20 07:30:07;;;;;;;1.75;0.80;;;15.60;49.00;;;;;;5064282;28;20475;-52
2022/02/20 07:32:34;;;;;;;3.55;1.20;;;15.70;49.20;;;;;;5062232;28;20021;-53
2022/02/20 07:35:00;;;;;;;2.85;1.10;;;15.70;49.00;;;;;;5056868;28;20028;-50
2022/02/20 07:37:29;;;;;;;2.58;1.00;;;15.70;49.00;;;;;;5056348;28;20415;-52
2022/02/20 07:39:58;;;;;;;1.58;0.77;;;15.70;49.10;;;;;;5055530;28;20020;-51
2022/02/20 07:42:24;;;;;;;1.77;0.95;;;15.70;49.30;;;;;;5055432;28;20087;-48
2022/02/20 07:44:51;;;;;;;1.95;0.90;;;15.60;48.90;;;;;;5055233;28;20459;-47
2022/02/20 07:47:16;;;;;;;2.08;0.95;;;15.60;49.10;;;;;;5055242;28;20013;-47
2022/02/20 07:49:42;;;;;;;3.13;1.13;;;15.60;49.40;;;;;;5054477;28;20020;-52
2022/02/20 07:52:09;;;;;;;1.40;0.70;;;15.60;49.20;;;;;;5056292;28;20472;-46
2022/02/20 07:54:34;;;;;;;2.72;0.82;;;15.60;49.40;;;;;;5055501;28;20024;-47
2022/02/20 07:57:00;;;;;;;2.45;0.82;;;15.60;49.40;;;;;;5055622;28;20583;-49
2022/02/20 07:59:26;;;;;;;3.28;1.10;;;15.60;49.40;;;;;;5054020;28;20494;-47
2022/02/20 08:01:52;;;;;;;2.30;1.08;;;15.60;49.40;;;;;;5054869;28;20017;-46
2022/02/20 08:04:18;;;;;;;2.33;1.10;;;15.60;49.60;;;;;;5053780;28;20024;-48
2022/02/20 08:06:44;;;;;;;2.42;0.93;;;15.60;49.40;;;;;;5055108;28;20033;-47
2022/02/20 08:09:10;;;;;;;2.88;1.13;;;15.60;49.50;;;;;;5055620;28;20063;-51
2022/02/20 08:11:35;;;;;;;6.30;1.15;;;15.60;49.60;;;;;;5055903;28;20040;-50
2022/02/20 08:14:05;;;;;;;2.22;0.90;;;15.60;49.60;;;;;;5054213;28;20052;-48
2022/02/20 08:16:31;;;;;;;1.75;0.80;;;15.60;49.80;;;;;;5053357;28;20025;-49
2022/02/20 08:18:57;;;;;;;3.33;1.13;;;15.60;49.70;;;;;;5054851;28;20017;-48
2022/02/20 08:21:23;;;;;;;3.97;1.40;;;15.70;49.70;;;;;;5055097;28;20022;-47
2022/02/20 08:23:52;;;;;;;1.90;0.90;;;15.60;49.70;;;;;;5055089;28;20395;-48
2022/02/20 08:26:18;;;;;;;1.98;1.00;;;15.60;49.80;;;;;;5054810;28;20084;-50
2022/02/20 08:28:44;;;;;;;2.70;0.82;;;15.70;50.10;;;;;;5054491;28;20137;-48
2022/02/20 08:31:10;;;;;;;1.35;0.63;;;15.70;49.90;;;;;;5053254;28;20021;-48
2022/02/20 08:33:37;;;;;;;2.83;1.10;;;15.70;50.10;;;;;;5053972;28;20028;-49
2022/02/20 08:36:05;;;;;;;2.75;0.95;;;15.70;49.90;;;;;;5053885;28;20498;-48
2022/02/20 08:38:31;;;;;;;2.58;1.00;;;15.70;50.20;;;;;;5054059;28;20013;-49
2022/02/20 08:40:58;;;;;;;3.05;1.23;;;15.70;50.00;;;;;;5054600;28;20013;-49
2022/02/20 08:43:26;;;;;;;1.65;0.73;;;15.70;50.10;;;;;;5052776;28;20104;-48
2022/02/20 08:45:51;;;;;;;4.05;1.00;;;15.70;50.30;;;;;;5054229;28;20017;-50
2022/02/20 08:48:17;;;;;;;2.33;0.90;;;15.70;50.30;;;;;;5054823;28;20021;-48
2022/02/20 08:50:43;;;;;;;1.70;0.70;;;15.60;50.20;;;;;;5054944;28;20025;-47
2022/02/20 08:53:10;;;;;;;2.55;0.80;;;15.70;50.20;;;;;;5054222;28;20013;-49
2022/02/20 08:55:36;;;;;;;2.17;0.63;;;15.70;50.50;;;;;;5054846;28;20047;-49
2022/02/20 08:58:02;;;;;;;2.15;1.05;;;15.70;50.80;;;;;;5054777;28;20025;-50
2022/02/20 09:00:31;;;;;;;2.83;0.90;;;15.70;50.60;;;;;;5054739;28;20017;-48
2022/02/20 09:02:58;;;;;;;2.53;0.70;;;15.70;50.70;;;;;;5054389;28;20024;-52
2022/02/20 09:05:24;;;;;;;2.35;0.82;;;15.70;50.40;;;;;;5054464;28;20419;-51
2022/02/20 09:07:50;;;;;;;2.80;0.90;;;15.70;50.80;;;;;;5052975;28;20467;-50
2022/02/20 09:10:17;;;;;;;3.00;1.33;;;15.70;50.60;;;;;;5055300;28;20059;-51
2022/02/20 09:12:43;;;;;;;1.30;0.70;;;15.70;50.60;;;;;;5053995;28;20028;-48
2022/02/20 09:15:09;;;;;;;2.58;0.95;;;15.70;50.60;;;;;;5054154;28;20021;-51
2022/02/20 09:17:36;;;;;;;1.88;0.93;;;15.70;50.70;;;;;;5054449;28;20388;-49
2022/02/20 09:20:03;;;;;;;2.80;0.95;;;15.70;51.00;;;;;;5055199;28;20028;-51
2022/02/20 09:22:28;;;;;;;2.75;0.95;;;15.70;50.80;;;;;;5054567;28;20009;-47
2022/02/20 09:24:57;;;;;;;2.45;0.80;;;15.70;50.90;;;;;;5051830;28;20495;-48
2022/02/20 09:27:24;;;;;;;3.55;1.00;;;15.70;51.30;;;;;;5052991;28;20132;-49
2022/02/20 09:29:49;;;;;;;3.55;0.82;;;15.70;51.10;;;;;;5053303;28;20138;-48
2022/02/20 09:32:17;;;;;;;2.03;0.82;;;15.70;51.00;;;;;;5053195;28;20108;-48
2022/02/20 09:34:43;;;;;;;3.50;1.50;;;15.70;50.90;;;;;;5051917;28;20100;-52
2022/02/20 09:37:09;;;;;;;3.10;0.82;;;15.70;50.90;;;;;;5053127;28;20021;-48
2022/02/20 09:39:35;;;;;;;1.92;0.82;;;15.70;50.80;;;;;;5051801;28;20514;-52
2022/02/20 09:42:02;;;;;;;2.80;1.10;;;15.70;50.80;;;;;;5053253;28;20068;-48
2022/02/20 09:44:28;;;;;;;3.60;1.20;;;15.70;50.90;;;;;;5053201;28;20460;-48
2022/02/20 09:46:55;;;;;;;3.45;1.00;;;15.70;51.10;;;;;;5053507;28;20020;-48
2022/02/20 09:49:25;;;;;;;1.08;0.60;;;15.70;50.90;;;;;;5053556;28;20033;-47
2022/02/20 09:51:51;;;;;;;2.92;0.88;;;15.70;50.90;;;;;;5053464;28;20041;-46
2022/02/20 09:54:18;;;;;;;3.00;1.00;;;15.70;51.10;;;;;;5052740;28;20009;-46
2022/02/20 09:56:44;;;;;;;3.30;1.13;;;15.70;51.20;;;;;;5052504;28;20515;-50
2022/02/20 09:59:11;;;;;;;3.15;1.13;;;15.70;51.10;;;;;;5052845;28;20014;-47
2022/02/20 10:01:37;;;;;;;2.03;0.95;;;15.70;51.10;;;;;;5051319;28;20020;-47
2022/02/20 10:04:11;;;;;;;4.10;1.10;;;15.70;51.20;;;;;;5053584;28;20468;-46
2022/02/20 10:06:37;;;;;;;2.33;0.95;;;15.70;51.10;;;;;;5056914;28;20028;-45
2022/02/20 10:09:03;;;;;;;2.88;0.95;;;15.70;51.30;;;;;;5055825;28;20025;-46
2022/02/20 10:11:29;;;;;;;2.25;1.13;;;15.70;51.60;;;;;;5057336;28;20052;-52
2022/02/20 10:14:04;;;;;;;3.97;1.40;;;15.70;51.40;;;;;;5058365;28;20028;-46
2022/02/20 10:16:31;;;;;;;2.92;1.00;;;15.70;51.70;;;;;;5058516;28;20022;-50
2022/02/20 10:18:58;;;;;;;2.58;1.15;;;15.70;51.50;;;;;;5058419;28;20106;-46
2022/02/20 10:21:30;;;;;;;2.90;1.13;;;15.70;51.50;;;;;;5058775;28;20021;-47
2022/02/20 10:24:04;;;;;;;2.40;1.08;;;15.70;51.50;;;;;;5059542;28;20040;-46
2022/02/20 10:26:32;;;;;;;4.30;1.50;;;15.70;51.50;;;;;;5058695;28;20016;-48
2022/02/20 10:29:09;;;;;;;3.05;0.93;;;15.70;51.70;;;;;;5058830;28;20116;-46
2022/02/20 10:31:41;;;;;;;2.63;1.00;;;15.70;51.70;;;;;;5059156;28;20085;-47
2022/02/20 10:34:16;;;;;;;3.10;1.30;;;15.70;51.80;;;;;;5058850;28;20105;-50
2022/02/20 10:36:46;;;;;;;2.60;0.98;;;15.70;51.70;;;;;;5057333;28;20095;-48
2022/02/20 10:39:25;;;;;;;3.00;1.23;;;15.70;51.70;;;;;;5057064;28;20139;-48
2022/02/20 10:41:52;;;;;;;2.30;1.00;;;15.70;51.90;;;;;;5056726;28;20045;-47
2022/02/20 10:44:17;;;;;;;3.38;1.10;;;15.70;51.90;;;;;;5056804;28;20005;-45
2022/02/20 10:46:43;;;;;;;2.97;1.10;;;15.70;52.00;;;;;;5057711;28;20384;-48
2022/02/20 10:49:22;;;;;;;2.10;0.77;;;15.70;51.90;;;;;;5056250;28;20017;-44
2022/02/20 10:51:48;;;;;;;5.20;1.33;;;15.70;51.80;;;;;;5057502;28;20494;-46
2022/02/20 10:54:14;;;;;;;2.70;1.00;;;15.70;51.90;;;;;;5057309;28;20588;-48
2022/02/20 10:56:43;;;;;;;4.55;1.27;;;15.70;52.10;;;;;;5057035;28;20025;-46
2022/02/20 10:59:09;;;;;;;2.75;1.17;;;15.70;52.00;;;;;;5057007;28;20005;-44
2022/02/20 11:01:35;;;;;;;4.10;1.33;;;15.70;52.10;;;;;;5057158;28;20036;-47
2022/02/20 11:04:05;;;;;;;4.47;1.60;;;15.70;52.00;;;;;;5058011;28;20021;-48
2022/02/20 11:06:32;;;;;;;4.68;1.40;;;15.70;52.10;;;;;;5058194;28;20092;-46
2022/02/20 11:08:58;;;;;;;3.08;1.00;;;15.70;51.90;;;;;;5057050;28;20028;-48
2022/02/20 11:11:37;;;;;;;5.40;1.45;;;15.70;52.00;;;;;;5058027;28;20015;-46
2022/02/20 11:14:06;;;;;;;3.60;1.30;;;15.70;52.10;;;;;;5056512;28;20156;-47
2022/02/20 11:16:33;;;;;;;4.18;1.52;;;15.70;52.10;;;;;;5057857;28;20067;-47
2022/02/20 11:19:02;;;;;;;3.22;1.20;;;15.70;52.20;;;;;;5059616;28;20009;-49
2022/02/20 11:21:28;;;;;;;5.03;1.65;;;15.70;52.20;;;;;;5059047;28;20017;-49
2022/02/20 11:23:56;;;;;;;4.03;1.52;;;15.70;52.10;;;;;;5059122;28;20435;-52
2022/02/20 11:26:22;;;;;;;2.95;1.23;;;15.70;52.30;;;;;;5060577;28;20096;-51
2022/02/20 11:28:49;;;;;;;6.25;1.60;;;15.70;52.20;;;;;;5060662;28;20029;-48
2022/02/20 11:31:16;;;;;;;3.40;1.40;;;15.70;52.30;;;;;;5059552;28;20523;-46
2022/02/20 11:33:42;;;;;;;5.50;1.40;;;15.70;52.20;;;;;;5056948;28;20565;-47
2022/02/20 11:36:08;;;;;;;3.42;1.38;;;15.70;52.30;;;;;;5057096;28;20113;-49
2022/02/20 11:38:35;;;;;;;2.90;1.42;;;15.70;52.20;;;;;;5055467;28;20009;-50
2022/02/20 11:41:03;;;;;;;5.65;1.50;;;15.70;52.50;;;;;;5056247;28;20013;-49
2022/02/20 11:43:45;;;;;;;4.43;1.40;;;15.70;52.30;;;;;;5054803;28;20088;-47
2022/02/20 11:46:22;;;;;;;4.80;1.70;;;15.70;52.30;;;;;;5056318;28;20017;-50
2022/02/20 11:49:19;;;;;;;2.53;1.02;;;15.70;52.30;;;;;;5055355;28;20075;-49
2022/02/20 11:52:09;;;;;;;4.72;1.15;;;15.70;52.30;;;;;;5051247;28;20025;-47
2022/02/20 11:54:39;;;;;;;4.78;1.80;;;15.70;52.50;;;;;;5055806;28;20013;-48
2022/02/20 11:57:18;;;;;;;4.53;1.60;;;15.70;52.30;;;;;;5055498;28;20021;-46
2022/02/20 12:00:03;;;;;;;3.08;1.40;;;15.70;52.40;;;;;;5055388;28;20052;-46
2022/02/20 12:02:29;;;;;;;4.43;1.63;;;15.70;52.40;;;;;;5055491;28;20017;-48
2022/02/20 12:04:55;;;;;;;4.15;1.70;;;15.70;52.50;;;;;;5055098;28;20048;-47
2022/02/20 12:07:30;;;;;;;5.10;1.30;;;15.70;52.50;;;;;;5054886;28;20032;-48
2022/02/20 12:10:19;;;;;;;5.55;1.88;;;15.70;52.50;;;;;;5054598;28;20020;-49
2022/02/20 12:12:49;;;;;;;8.73;1.98;;;15.70;52.50;;;;;;5054157;28;20029;-49
2022/02/20 12:15:33;;;;;;;4.45;1.48;;;15.70;52.50;;;;;;5054237;28;20013;-50
2022/02/20 12:18:15;;;;;;;3.85;1.27;;;15.70;52.70;;;;;;5054280;28;20029;-48
2022/02/20 12:20:56;;;;;;;5.65;1.70;;;15.70;52.60;;;;;;5054282;28;20037;-50
2022/02/20 12:23:47;;;;;;;4.93;1.80;;;15.70;52.80;;;;;;5054044;28;20488;-50
2022/02/20 12:26:41;;;;;;;3.30;1.38;;;15.70;52.70;;;;;;5052658;28;20017;-51
2022/02/20 12:29:13;;;;;;;3.90;1.35;;;15.70;52.70;;;;;;5054075;28;20025;-49
2022/02/20 12:32:00;;;;;;;5.15;1.50;;;15.60;52.60;;;;;;5053810;28;20028;-48
2022/02/20 12:34:45;;;;;;;5.88;1.65;;;15.60;52.60;;;;;;5054111;28;20017;-49
2022/02/20 12:37:11;;;;;;;4.88;1.67;;;15.60;52.70;;;;;;5054026;28;20029;-51
2022/02/20 12:39:37;;;;;;;6.53;2.08;;;15.70;52.70;;;;;;5054569;28;20021;-47
2022/02/20 12:42:04;;;;;;;4.15;1.55;;;15.70;52.80;;;;;;5053599;28;20151;-47
2022/02/20 12:44:33;;;;;;;3.03;1.42;;;15.70;52.80;;;;;;5054410;28;20009;-50
2022/02/20 12:47:00;;;;;;;6.83;2.03;;;15.70;52.80;;;;;;5054796;28;20036;-51
2022/02/20 12:49:27;;;;;;;5.93;1.73;;;15.70;53.30;;;;;;5053278;28;20255;-48